Time;durP1;ratioP1;P1;durP2;ratioP2;P2;SDS_P1;SDS_P2;PMS_P1;PMS_P2;Temp;Humidity;BMP_temperature;BMP_pressure;BME280_temperature;BME280_humidity;BME280_pressure;Samples;Min_cycle;Max_cycle;Signal;HPM_P1;HPM_P2
2024/01/05 00:01:12;;;;;;;;;;;6.90;99.90;;;;;;5004137;28;20010;-84
2024/01/05 00:03:38;;;;;;;;;;;6.80;99.90;;;;;;4999685;28;19974;-84
2024/01/05 00:06:03;;;;;;;;;;;6.70;99.90;;;;;;5001798;28;20368;-85
2024/01/05 00:08:29;;;;;;;;;;;6.70;99.90;;;;;;5007554;28;19957;-84
2024/01/05 00:10:54;;;;;;;;;;;6.70;99.90;;;;;;5015487;28;19978;-84
2024/01/05 00:13:20;;;;;;;;;;;6.60;99.90;;;;;;5025925;28;19927;-84
2024/01/05 00:15:46;;;;;;;;;;;6.50;99.90;;;;;;5023468;28;19982;-84
2024/01/05 00:18:11;;;;;;;;;;;6.40;99.90;;;;;;5021849;28;19938;-83
2024/01/05 00:20:37;;;;;;;;;;;6.40;99.90;;;;;;5006207;28;19932;-83
2024/01/05 00:23:03;;;;;;;;;;;6.40;99.90;;;;;;5003524;28;20003;-83
2024/01/05 00:25:28;;;;;;;;;;;6.40;99.90;;;;;;5001699;28;19955;-83
2024/01/05 00:27:54;;;;;;;;;;;6.30;99.90;;;;;;5003107;28;19931;-83
2024/01/05 00:30:19;;;;;;;;;;;6.30;99.90;;;;;;5010467;28;20421;-84
2024/01/05 00:32:45;;;;;;;;;;;6.10;99.90;;;;;;5006885;28;19954;-83
2024/01/05 00:35:10;;;;;;;;;;;6.10;99.90;;;;;;5007797;28;19953;-83
2024/01/05 00:37:36;;;;;;;;;;;5.90;99.90;;;;;;5006644;28;20434;-84
2024/01/05 00:40:03;;;;;;;;;;;5.90;99.90;;;;;;5008431;28;19938;-83
2024/01/05 00:42:28;;;;;;;;;;;5.80;99.90;;;;;;5006741;28;19927;-83
2024/01/05 00:44:54;;;;;;;;;;;5.90;99.90;;;;;;5006573;28;19976;-83
2024/01/05 00:47:19;;;;;;;;;;;5.90;99.90;;;;;;5007852;28;19925;-82
2024/01/05 00:49:47;;;;;;;;;;;5.80;99.90;;;;;;4988982;28;19947;-82
2024/01/05 00:52:13;;;;;;;;;;;5.80;99.90;;;;;;5008064;28;20403;-82
2024/01/05 00:54:39;;;;;;;;;;;5.70;99.90;;;;;;5008206;28;19999;-82
2024/01/05 00:57:04;;;;;;;;;;;5.60;99.90;;;;;;5006189;28;19945;-82
2024/01/05 00:59:30;;;;;;;;;;;5.50;99.90;;;;;;5007817;28;19932;-82
2024/01/05 01:01:55;;;;;;;;;;;5.50;99.90;;;;;;5008423;28;19932;-81
2024/01/05 01:04:21;;;;;;;;;;;5.40;99.90;;;;;;5007745;28;20415;-81
2024/01/05 01:06:46;;;;;;;;;;;5.30;99.90;;;;;;5008590;28;20274;-81
2024/01/05 01:09:12;;;;;;;;;;;5.40;99.90;;;;;;5008815;28;19932;-81
2024/01/05 01:11:37;;;;;;;;;;;5.30;99.90;;;;;;5006111;28;19958;-80
2024/01/05 01:14:03;;;;;;;;;;;5.30;99.90;;;;;;5004988;28;20280;-81
2024/01/05 01:16:28;;;;;;;;;;;5.30;99.90;;;;;;5007293;28;19920;-81
2024/01/05 01:18:54;;;;;;;;;;;5.20;99.90;;;;;;5006717;28;19949;-80
2024/01/05 01:21:19;;;;;;;;;;;5.20;99.90;;;;;;5007353;28;20006;-81
2024/01/05 01:23:45;;;;;;;;;;;5.20;99.90;;;;;;5005993;28;19933;-81
2024/01/05 01:26:10;;;;;;;;;;;5.10;99.90;;;;;;5009133;28;19996;-81
2024/01/05 01:28:36;;;;;;;;;;;5.20;99.90;;;;;;5008335;28;19956;-81
2024/01/05 01:31:02;;;;;;;;;;;5.20;99.90;;;;;;5007858;28;20023;-81
2024/01/05 01:33:27;;;;;;;;;;;5.10;99.90;;;;;;5007170;28;20007;-80
2024/01/05 01:35:53;;;;;;;;;;;5.10;99.90;;;;;;5009205;28;19950;-81
2024/01/05 01:38:18;;;;;;;;;;;5.10;99.90;;;;;;5004855;28;20011;-81
2024/01/05 01:40:45;;;;;;;;;;;5.10;99.90;;;;;;5009027;28;20302;-81
2024/01/05 01:43:19;;;;;;;;;;;5.10;99.90;;;;;;5005003;28;19938;-81
2024/01/05 01:45:45;;;;;;;;;;;5.10;99.90;;;;;;5006306;28;19947;-80
2024/01/05 01:48:10;;;;;;;;;;;5.10;99.90;;;;;;5003762;28;19930;-80
2024/01/05 01:50:36;;;;;;;;;;;5.10;99.90;;;;;;5006027;28;20352;-81
2024/01/05 01:53:02;;;;;;;;;;;5.10;99.90;;;;;;5006579;28;19976;-80
2024/01/05 01:55:27;;;;;;;;;;;5.10;99.90;;;;;;5006645;28;19969;-80
2024/01/05 01:57:53;;;;;;;;;;;5.00;99.90;;;;;;5006275;28;19993;-80
2024/01/05 02:00:19;;;;;;;;;;;5.00;99.90;;;;;;5005062;28;20026;-80
2024/01/05 02:02:45;;;;;;;;;;;5.10;99.90;;;;;;5006607;28;19990;-80
2024/01/05 02:05:11;;;;;;;;;;;5.00;99.90;;;;;;5006776;28;19951;-79
2024/01/05 02:07:36;;;;;;;;;;;4.90;99.90;;;;;;5006628;28;19937;-80
2024/01/05 02:10:02;;;;;;;;;;;4.90;99.90;;;;;;5005714;28;21494;-79
2024/01/05 02:12:27;;;;;;;;;;;4.90;99.90;;;;;;5005525;28;20258;-79
2024/01/05 02:14:53;;;;;;;;;;;4.90;99.90;;;;;;5008072;28;19945;-79
2024/01/05 02:17:26;;;;;;;;;;;4.90;99.90;;;;;;5025488;28;19932;-79
2024/01/05 02:19:52;;;;;;;;;;;4.80;99.90;;;;;;5023943;28;19934;-79
2024/01/05 02:22:19;;;;;;;;;;;4.80;99.90;;;;;;5030225;28;19928;-80
2024/01/05 02:24:44;;;;;;;;;;;4.80;99.90;;;;;;5021944;28;19946;-79
2024/01/05 02:27:10;;;;;;;;;;;4.80;99.90;;;;;;5015269;28;20418;-79
2024/01/05 02:29:36;;;;;;;;;;;4.80;99.90;;;;;;5017469;28;20439;-79
2024/01/05 02:32:02;;;;;;;;;;;4.90;99.90;;;;;;5016038;28;19941;-79
2024/01/05 02:34:27;;;;;;;;;;;4.90;99.90;;;;;;5015727;28;19938;-79
2024/01/05 02:36:53;;;;;;;;;;;4.90;99.90;;;;;;5015888;28;20325;-79
2024/01/05 02:39:18;;;;;;;;;;;4.90;99.90;;;;;;5015117;28;19924;-79
2024/01/05 02:41:44;;;;;;;;;;;4.90;99.90;;;;;;5011656;28;19935;-78
2024/01/05 02:44:09;;;;;;;;;;;4.90;99.90;;;;;;5014959;28;20024;-79
2024/01/05 02:46:37;;;;;;;;;;;4.90;99.90;;;;;;5012977;28;19926;-77
2024/01/05 02:49:03;;;;;;;;;;;4.90;99.90;;;;;;5015451;28;19928;-78
2024/01/05 02:51:28;;;;;;;;;;;4.90;99.90;;;;;;5007657;28;19940;-81
2024/01/05 02:53:55;;;;;;;;;;;4.80;99.90;;;;;;5008601;28;20447;-80
2024/01/05 02:56:21;;;;;;;;;;;4.80;99.90;;;;;;5012549;28;20385;-78
2024/01/05 02:58:47;;;;;;;;;;;4.80;99.90;;;;;;5009843;28;19939;-78
2024/01/05 03:01:16;;;;;;;;;;;4.80;99.90;;;;;;5009784;28;19959;-78
2024/01/05 03:03:43;;;;;;;;;;;4.80;99.90;;;;;;5010170;28;19928;-78
2024/01/05 03:06:09;;;;;;;;;;;4.80;99.90;;;;;;5013323;28;20418;-78
2024/01/05 03:08:34;;;;;;;;;;;4.80;99.90;;;;;;5011807;28;19982;-78
2024/01/05 03:11:00;;;;;;;;;;;4.70;99.90;;;;;;5016831;28;19943;-78
2024/01/05 03:13:25;;;;;;;;;;;4.80;99.90;;;;;;5012575;28;19996;-78
2024/01/05 03:15:53;;;;;;;;;;;4.80;99.90;;;;;;5013179;28;19940;-78
2024/01/05 03:18:19;;;;;;;;;;;4.80;99.90;;;;;;5009845;28;19933;-79
2024/01/05 03:20:44;;;;;;;;;;;4.90;99.90;;;;;;5000907;28;19919;-78
2024/01/05 03:23:10;;;;;;;;;;;4.80;99.90;;;;;;5013512;28;19984;-79
2024/01/05 03:25:35;;;;;;;;;;;4.90;99.90;;;;;;5010914;28;19945;-78
2024/01/05 03:28:01;;;;;;;;;;;4.90;99.90;;;;;;5016079;28;19906;-78
2024/01/05 03:30:26;;;;;;;;;;;5.00;99.90;;;;;;5020384;28;20020;-79
2024/01/05 03:32:52;;;;;;;;;;;5.00;99.90;;;;;;5026173;28;20029;-80
2024/01/05 03:35:17;;;;;;;;;;;5.10;99.90;;;;;;5021738;28;20394;-80
2024/01/05 03:37:43;;;;;;;;;;;5.10;99.90;;;;;;5026554;28;19934;-80
2024/01/05 03:40:08;;;;;;;;;;;5.20;99.90;;;;;;5028238;28;20298;-79
2024/01/05 03:42:34;;;;;;;;;;;5.20;99.90;;;;;;5023323;28;20354;-79
2024/01/05 03:44:59;;;;;;;;;;;5.20;99.90;;;;;;5023570;28;19925;-80
2024/01/05 03:47:25;;;;;;;;;;;5.30;99.90;;;;;;5024130;28;19973;-80
2024/01/05 03:49:50;;;;;;;;;;;5.30;99.90;;;;;;5023752;28;19931;-78
2024/01/05 03:52:16;;;;;;;;;;;5.40;99.90;;;;;;5023150;28;19938;-78
2024/01/05 03:54:42;;;;;;;;;;;5.40;99.90;;;;;;5023890;28;19944;-78
2024/01/05 03:57:07;;;;;;;;;;;5.40;99.90;;;;;;5022824;28;19933;-77
2024/01/05 03:59:33;;;;;;;;;;;5.40;99.90;;;;;;5024003;28;19935;-79
2024/01/05 04:01:58;;;;;;;;;;;5.40;99.90;;;;;;5020554;28;20380;-80
2024/01/05 04:04:24;;;;;;;;;;;5.40;99.90;;;;;;5022846;28;19925;-79
2024/01/05 04:06:50;;;;;;;;;;;5.50;99.90;;;;;;5022454;28;20039;-79
2024/01/05 04:09:16;;;;;;;;;;;5.50;99.90;;;;;;5024395;28;20263;-79
2024/01/05 04:11:42;;;;;;;;;;;5.50;99.90;;;;;;5026982;28;19912;-79
2024/01/05 04:14:07;;;;;;;;;;;5.50;99.90;;;;;;5027107;28;19925;-79
2024/01/05 04:16:33;;;;;;;;;;;5.50;99.90;;;;;;5027000;28;20400;-78
2024/01/05 04:18:59;;;;;;;;;;;5.50;99.90;;;;;;5025405;28;19938;-78
2024/01/05 04:21:25;;;;;;;;;;;5.60;99.90;;;;;;5027597;28;19939;-78
2024/01/05 04:23:52;;;;;;;;;;;5.60;99.90;;;;;;5035692;28;19941;-79
2024/01/05 04:26:17;;;;;;;;;;;5.50;99.90;;;;;;5038038;28;19943;-77
2024/01/05 04:28:42;;;;;;;;;;;5.60;99.90;;;;;;5042938;28;19970;-77
2024/01/05 04:31:08;;;;;;;;;;;5.60;99.90;;;;;;5034472;28;20567;-77
2024/01/05 04:33:34;;;;;;;;;;;5.60;99.90;;;;;;5029392;28;19945;-77
2024/01/05 04:36:00;;;;;;;;;;;5.60;99.90;;;;;;5027471;28;20429;-77
2024/01/05 04:38:25;;;;;;;;;;;5.60;99.90;;;;;;5026986;28;19930;-78
2024/01/05 04:40:51;;;;;;;;;;;5.50;99.90;;;;;;5023465;28;20279;-78
2024/01/05 04:43:16;;;;;;;;;;;5.60;99.90;;;;;;5023129;28;19947;-78
2024/01/05 04:45:42;;;;;;;;;;;5.50;99.90;;;;;;5026257;28;20008;-78
2024/01/05 04:48:07;;;;;;;;;;;5.50;99.90;;;;;;5027265;28;19924;-78
2024/01/05 04:50:33;;;;;;;;;;;5.50;99.90;;;;;;5026063;28;19931;-78
2024/01/05 04:52:58;;;;;;;;;;;5.50;99.90;;;;;;5027631;28;19977;-78
2024/01/05 04:55:25;;;;;;;;;;;5.50;99.90;;;;;;5024804;28;20015;-78
2024/01/05 04:57:50;;;;;;;;;;;5.50;99.90;;;;;;5025670;28;19929;-78
2024/01/05 05:00:16;;;;;;;;;;;5.40;99.90;;;;;;5022826;28;19923;-80
2024/01/05 05:02:41;;;;;;;;;;;5.40;99.90;;;;;;5026274;28;19957;-79
2024/01/05 05:05:08;;;;;;;;;;;5.40;99.90;;;;;;5023443;28;19982;-78
2024/01/05 05:07:33;;;;;;;;;;;5.40;99.90;;;;;;5026377;28;19932;-80
2024/01/05 05:09:59;;;;;;;;;;;5.40;99.90;;;;;;5022487;28;19983;-77
2024/01/05 05:12:24;;;;;;;;;;;5.40;99.90;;;;;;5022837;28;19943;-77
2024/01/05 05:14:50;;;;;;;;;;;5.40;99.90;;;;;;5020495;28;19954;-80
2024/01/05 05:17:15;;;;;;;;;;;5.40;99.90;;;;;;5021799;28;19917;-79
2024/01/05 05:19:41;;;;;;;;;;;5.40;99.90;;;;;;5021253;28;19960;-79
2024/01/05 05:22:06;;;;;;;;;;;5.40;99.90;;;;;;5004219;28;19942;-79
2024/01/05 05:24:32;;;;;;;;;;;5.30;99.90;;;;;;5022791;28;19935;-79
2024/01/05 05:26:57;;;;;;;;;;;5.40;99.90;;;;;;5018597;28;19981;-79
2024/01/05 05:29:23;;;;;;;;;;;5.40;99.90;;;;;;5021813;28;19948;-77
2024/01/05 05:31:48;;;;;;;;;;;5.40;99.90;;;;;;5020950;28;20291;-80
2024/01/05 05:34:14;;;;;;;;;;;5.40;99.90;;;;;;5023297;28;20347;-79
2024/01/05 05:36:39;;;;;;;;;;;5.40;99.90;;;;;;5020604;28;19933;-79
2024/01/05 05:39:05;;;;;;;;;;;5.40;99.90;;;;;;5021562;28;19918;-79
2024/01/05 05:41:31;;;;;;;;;;;5.40;99.90;;;;;;5021608;28;20038;-80
2024/01/05 05:43:56;;;;;;;;;;;5.40;99.90;;;;;;5024406;28;20369;-77
2024/01/05 05:46:22;;;;;;;;;;;5.40;99.90;;;;;;5018804;28;19917;-77
2024/01/05 05:48:47;;;;;;;;;;;5.40;99.90;;;;;;5021765;28;19937;-79
2024/01/05 05:51:13;;;;;;;;;;;5.40;99.90;;;;;;5023710;28;19925;-78
2024/01/05 05:53:38;;;;;;;;;;;5.40;99.90;;;;;;5023652;28;19927;-79
2024/01/05 05:56:04;;;;;;;;;;;5.40;99.90;;;;;;5024578;28;19944;-78
2024/01/05 05:58:29;;;;;;;;;;;5.40;99.90;;;;;;5022346;28;19935;-79
2024/01/05 06:00:55;;;;;;;;;;;5.40;99.90;;;;;;5023037;28;19965;-79
2024/01/05 06:03:22;;;;;;;;;;;5.40;99.90;;;;;;5026018;28;20324;-79
2024/01/05 06:05:48;;;;;;;;;;;5.40;99.90;;;;;;5021018;28;19949;-79
2024/01/05 06:08:14;;;;;;;;;;;5.40;99.90;;;;;;5021267;28;19934;-79
2024/01/05 06:10:39;;;;;;;;;;;5.30;99.90;;;;;;5023115;28;19923;-79
2024/01/05 06:13:05;;;;;;;;;;;5.40;99.90;;;;;;5020078;28;20381;-78
2024/01/05 06:15:30;;;;;;;;;;;5.30;99.90;;;;;;5024734;28;20069;-79
2024/01/05 06:17:56;;;;;;;;;;;5.40;99.90;;;;;;5024359;28;19984;-80
2024/01/05 06:20:21;;;;;;;;;;;5.30;99.90;;;;;;5025848;28;19933;-79
2024/01/05 06:22:47;;;;;;;;;;;5.30;99.90;;;;;;5025363;28;19939;-77
2024/01/05 06:25:12;;;;;;;;;;;5.40;99.90;;;;;;5022618;28;20322;-78
2024/01/05 06:27:38;;;;;;;;;;;5.30;99.90;;;;;;5020327;28;19948;-79
2024/01/05 06:30:03;;;;;;;;;;;5.40;99.90;;;;;;5020875;28;19959;-79
2024/01/05 06:32:29;;;;;;;;;;;5.30;99.90;;;;;;5035162;28;19927;-79
2024/01/05 06:34:54;;;;;;;;;;;5.30;99.90;;;;;;5030906;28;19945;-78
2024/01/05 06:37:20;;;;;;;;;;;5.30;99.90;;;;;;5037377;28;20243;-77
2024/01/05 06:39:45;;;;;;;;;;;5.30;99.90;;;;;;5031889;28;19909;-79
2024/01/05 06:42:11;;;;;;;;;;;5.30;99.90;;;;;;5032409;28;19921;-80
2024/01/05 06:44:36;;;;;;;;;;;5.30;99.90;;;;;;5027444;28;20390;-80
2024/01/05 06:47:02;;;;;;;;;;;5.30;99.90;;;;;;5028446;28;19947;-79
2024/01/05 06:49:27;;;;;;;;;;;5.30;99.90;;;;;;5021639;28;19930;-79
2024/01/05 06:51:53;;;;;;;;;;;5.30;99.90;;;;;;5024417;28;19970;-79
2024/01/05 06:54:18;;;;;;;;;;;5.20;99.90;;;;;;5022800;28;19956;-80
2024/01/05 06:56:44;;;;;;;;;;;5.20;99.90;;;;;;5025158;28;19939;-80
2024/01/05 06:59:09;;;;;;;;;;;5.20;99.90;;;;;;5021156;28;20383;-80
2024/01/05 07:01:35;;;;;;;;;;;5.20;99.90;;;;;;5018009;28;20053;-77
2024/01/05 07:04:01;;;;;;;;;;;5.20;99.90;;;;;;5020638;28;19982;-80
2024/01/05 07:06:27;;;;;;;;;;;5.20;99.90;;;;;;5024751;28;20450;-80
2024/01/05 07:08:52;;;;;;;;;;;5.20;99.90;;;;;;5017774;28;19934;-78
2024/01/05 07:11:18;;;;;;;;;;;5.20;99.90;;;;;;5013672;28;20458;-78
2024/01/05 07:13:44;;;;;;;;;;;5.20;99.90;;;;;;5017627;28;20643;-80
2024/01/05 07:16:20;;;;;;;;;;;5.20;99.90;;;;;;5011925;28;19951;-80
2024/01/05 07:18:46;;;;;;;;;;;5.20;99.90;;;;;;5017950;28;20359;-80
2024/01/05 07:21:12;;;;;;;;;;;5.20;99.90;;;;;;5017807;28;20255;-78
2024/01/05 07:23:37;;;;;;;;;;;5.20;99.90;;;;;;5022987;28;20356;-80
2024/01/05 07:26:03;;;;;;;;;;;5.10;99.90;;;;;;5022038;28;20191;-80
2024/01/05 07:28:29;;;;;;;;;;;5.10;99.90;;;;;;5018802;28;20404;-80
2024/01/05 07:30:54;;;;;;;;;;;5.10;99.90;;;;;;5020021;28;20956;-80
2024/01/05 07:33:20;;;;;;;;;;;5.10;99.90;;;;;;5019285;28;19935;-81
2024/01/05 07:35:45;;;;;;;;;;;5.10;99.90;;;;;;5016673;28;19939;-81
2024/01/05 07:38:11;;;;;;;;;;;5.10;99.90;;;;;;5014343;28;19961;-78
2024/01/05 07:40:36;;;;;;;;;;;5.10;99.90;;;;;;5014952;28;19961;-80
2024/01/05 07:43:02;;;;;;;;;;;5.10;99.90;;;;;;5013647;28;19940;-81
2024/01/05 07:45:28;;;;;;;;;;;5.00;99.90;;;;;;5017151;28;20005;-78
2024/01/05 07:47:55;;;;;;;;;;;5.00;99.90;;;;;;5022155;28;19994;-81
2024/01/05 07:50:21;;;;;;;;;;;5.00;99.90;;;;;;5005530;28;19953;-82
2024/01/05 07:52:46;;;;;;;;;;;5.00;99.90;;;;;;5017864;28;20031;-80
2024/01/05 07:55:12;;;;;;;;;;;5.00;99.90;;;;;;5015580;28;19999;-83
2024/01/05 07:57:37;;;;;;;;;;;5.00;99.90;;;;;;5022616;28;19926;-81
2024/01/05 08:00:03;;;;;;;;;;;4.90;99.90;;;;;;5020847;28;19937;-79
2024/01/05 08:02:28;;;;;;;;;;;5.00;99.90;;;;;;5015508;28;20413;-79
2024/01/05 08:04:54;;;;;;;;;;;4.90;99.90;;;;;;5016891;28;20289;-78
2024/01/05 08:07:19;;;;;;;;;;;4.90;99.90;;;;;;5014958;28;19936;-79
2024/01/05 08:09:45;;;;;;;;;;;4.90;99.90;;;;;;5018873;28;19964;-79
2024/01/05 08:12:11;;;;;;;;;;;5.00;99.90;;;;;;5019351;28;20322;-78
2024/01/05 08:14:37;;;;;;;;;;;4.90;99.90;;;;;;5016980;28;20623;-79
2024/01/05 08:17:03;;;;;;;;;;;4.90;99.90;;;;;;5014765;28;19940;-78
2024/01/05 08:19:28;;;;;;;;;;;4.90;99.90;;;;;;5020802;28;19928;-80
2024/01/05 08:21:54;;;;;;;;;;;4.90;99.90;;;;;;5019197;28;19930;-80
2024/01/05 08:24:19;;;;;;;;;;;4.90;99.90;;;;;;5025001;28;20333;-87
2024/01/05 08:26:45;;;;;;;;;;;4.90;99.90;;;;;;5030854;28;20018;-89
2024/01/05 08:29:10;;;;;;;;;;;4.80;99.90;;;;;;5029333;28;19964;-90
2024/01/05 08:31:36;;;;;;;;;;;4.80;99.90;;;;;;5025085;28;19985;-86
2024/01/05 08:34:02;;;;;;;;;;;4.80;99.90;;;;;;5022540;28;20785;-86
2024/01/05 08:36:28;;;;;;;;;;;4.80;99.90;;;;;;5025724;28;20247;-85
2024/01/05 08:38:54;;;;;;;;;;;4.80;99.90;;;;;;5044223;28;19922;-85
2024/01/05 08:41:19;;;;;;;;;;;4.90;99.90;;;;;;5046502;28;19949;-89
2024/01/05 08:43:45;;;;;;;;;;;4.90;99.90;;;;;;5047438;28;19925;-87
2024/01/05 08:46:11;;;;;;;;;;;4.80;99.90;;;;;;5046061;28;19916;-88
2024/01/05 08:48:39;;;;;;;;;;;4.90;99.90;;;;;;5034302;28;20695;-90
2024/01/05 08:51:05;;;;;;;;;;;4.90;99.90;;;;;;5035512;28;19943;-90
2024/01/05 08:53:30;;;;;;;;;;;4.90;99.90;;;;;;5028629;28;19921;-81
2024/01/05 08:55:56;;;;;;;;;;;4.90;99.90;;;;;;5019733;28;19946;-85
2024/01/05 08:58:22;;;;;;;;;;;5.00;99.90;;;;;;5019843;28;19945;-86
2024/01/05 09:00:47;;;;;;;;;;;5.10;99.90;;;;;;5020342;28;19962;-84
2024/01/05 09:03:13;;;;;;;;;;;5.10;99.90;;;;;;5021389;28;20387;-83
2024/01/05 09:05:39;;;;;;;;;;;5.10;99.90;;;;;;5016096;28;20170;-83
2024/01/05 09:08:04;;;;;;;;;;;5.00;99.90;;;;;;5011386;28;20290;-84
2024/01/05 09:10:33;;;;;;;;;;;5.10;99.90;;;;;;5010642;28;20422;-83
2024/01/05 09:13:00;;;;;;;;;;;5.20;99.90;;;;;;5009511;28;20024;-83
2024/01/05 09:15:26;;;;;;;;;;;5.20;99.90;;;;;;5023000;28;20471;-84
2024/01/05 09:17:51;;;;;;;;;;;5.40;99.90;;;;;;5019653;28;19935;-85
2024/01/05 09:20:17;;;;;;;;;;;5.50;99.90;;;;;;5017031;28;19931;-83
2024/01/05 09:22:42;;;;;;;;;;;5.50;99.90;;;;;;5014867;28;20032;-83
2024/01/05 09:25:08;;;;;;;;;;;5.50;99.90;;;;;;5016174;28;19934;-84
2024/01/05 09:27:33;;;;;;;;;;;5.60;99.90;;;;;;5021858;28;20422;-84
2024/01/05 09:29:59;;;;;;;;;;;6.00;99.90;;;;;;5019677;28;19961;-84
2024/01/05 09:32:25;;;;;;;;;;;6.40;99.90;;;;;;5019802;28;19939;-86
2024/01/05 09:34:50;;;;;;;;;;;6.90;99.90;;;;;;5018439;28;19938;-81
2024/01/05 09:37:16;;;;;;;;;;;7.50;99.90;;;;;;5014764;28;19933;-83
2024/01/05 09:39:42;;;;;;;;;;;7.80;99.90;;;;;;5019434;28;19935;-83
2024/01/05 09:42:08;;;;;;;;;;;8.30;99.90;;;;;;5018147;28;19980;-85
2024/01/05 09:44:35;;;;;;;;;;;8.20;99.90;;;;;;5023877;28;19940;-83
2024/01/05 09:47:01;;;;;;;;;;;7.90;99.90;;;;;;5025526;28;19949;-85
2024/01/05 09:49:30;;;;;;;;;;;7.70;99.90;;;;;;5025221;28;19977;-85
2024/01/05 09:51:57;;;;;;;;;;;7.40;99.90;;;;;;5029856;28;20058;-88
2024/01/05 09:54:22;;;;;;;;;;;7.30;99.90;;;;;;5026290;28;19936;-85
2024/01/05 09:56:48;;;;;;;;;;;7.20;99.90;;;;;;5024963;28;19938;-89
2024/01/05 09:59:17;;;;;;;;;;;7.00;99.90;;;;;;5028978;28;19930;-89
2024/01/05 10:01:42;;;;;;;;;;;6.80;99.90;;;;;;5029812;28;19991;-89
2024/01/05 10:04:09;;;;;;;;;;;6.70;99.90;;;;;;5025704;28;19961;-90
2024/01/05 10:06:35;;;;;;;;;;;6.60;99.90;;;;;;5022184;28;19948;-87
2024/01/05 10:09:01;;;;;;;;;;;6.60;99.90;;;;;;5022578;28;19930;-88
2024/01/05 10:11:27;;;;;;;;;;;6.50;99.90;;;;;;5025439;28;19982;-89
2024/01/05 10:13:54;;;;;;;;;;;6.40;99.90;;;;;;5018678;28;19927;-88
2024/01/05 10:16:23;;;;;;;;;;;6.40;99.90;;;;;;5016941;28;19928;-90
2024/01/05 10:18:54;;;;;;;;;;;6.40;99.90;;;;;;5022835;28;19928;-89
2024/01/05 10:21:41;;;;;;;;;;;6.40;99.90;;;;;;5026925;28;19930;-86
2024/01/05 10:24:29;;;;;;;;;;;6.50;99.90;;;;;;5031051;28;19978;-87
2024/01/05 10:27:22;;;;;;;;;;;6.50;99.90;;;;;;5024461;28;19928;-90
2024/01/05 10:29:55;;;;;;;;;;;6.40;99.90;;;;;;5013396;28;19932;-90
2024/01/05 10:32:20;;;;;;;;;;;6.40;99.90;;;;;;5002553;28;19924;-83
2024/01/05 10:34:47;;;;;;;;;;;6.40;99.90;;;;;;5000227;28;19978;-83
2024/01/05 10:37:13;;;;;;;;;;;6.50;99.90;;;;;;5000345;28;19956;-83
2024/01/05 10:39:44;;;;;;;;;;;6.50;99.90;;;;;;5003741;28;19927;-82
2024/01/05 10:42:29;;;;;;;;;;;6.50;99.90;;;;;;5005400;28;19989;-80
2024/01/05 10:44:56;;;;;;;;;;;6.60;99.90;;;;;;5002996;28;19927;-79
2024/01/05 10:47:22;;;;;;;;;;;6.60;99.90;;;;;;5009886;28;20016;-79
2024/01/05 10:49:51;;;;;;;;;;;6.60;99.90;;;;;;5019707;28;19940;-88
2024/01/05 10:52:17;;;;;;;;;;;6.80;99.90;;;;;;5014986;28;19919;-86
2024/01/05 10:54:45;;;;;;;;;;;6.90;99.90;;;;;;5015319;28;19956;-88
2024/01/05 10:57:12;;;;;;;;;;;6.90;99.90;;;;;;5013317;28;19940;-87
2024/01/05 10:59:38;;;;;;;;;;;6.90;99.90;;;;;;5013222;28;19933;-85
2024/01/05 11:02:11;;;;;;;;;;;7.10;99.90;;;;;;5018221;28;19924;-85
2024/01/05 11:04:38;;;;;;;;;;;7.20;99.90;;;;;;5016490;28;19934;-85
2024/01/05 11:07:04;;;;;;;;;;;7.10;99.90;;;;;;5023189;28;19937;-87
2024/01/05 11:09:36;;;;;;;;;;;7.00;99.90;;;;;;5030351;28;19924;-90
2024/01/05 11:12:09;;;;;;;;;;;7.00;99.90;;;;;;5029181;28;19913;-89
2024/01/05 11:14:48;;;;;;;;;;;7.00;99.90;;;;;;5029673;28;19925;-83
2024/01/05 11:17:33;;;;;;;;;;;7.00;99.90;;;;;;5012127;28;19946;-89
2024/01/05 11:20:12;;;;;;;;;;;7.00;99.90;;;;;;5005558;28;19930;-84
2024/01/05 11:22:39;;;;;;;;;;;7.10;99.90;;;;;;5004996;28;19939;-87
2024/01/05 11:25:08;;;;;;;;;;;7.10;99.90;;;;;;5007788;28;19973;-89
2024/01/05 11:27:34;;;;;;;;;;;7.10;99.90;;;;;;5010750;28;19949;-85
2024/01/05 11:30:00;;;;;;;;;;;7.10;99.90;;;;;;5013852;28;19938;-90
2024/01/05 11:32:46;;;;;;;;;;;7.10;99.90;;;;;;5010639;28;19929;-88
2024/01/05 11:35:31;;;;;;;;;;;7.30;99.90;;;;;;5009256;28;19952;-85
2024/01/05 11:37:58;;;;;;;;;;;7.30;99.90;;;;;;5016761;28;19945;-87
2024/01/05 11:40:28;;;;;;;;;;;7.30;99.90;;;;;;5009730;28;19919;-85
2024/01/05 11:43:21;;;;;;;;;;;7.30;99.90;;;;;;5009850;28;20282;-88
2024/01/05 11:45:50;;;;;;;;;;;7.20;99.90;;;;;;5008616;28;19930;-89
2024/01/05 11:48:36;;;;;;;;;;;7.20;99.90;;;;;;5020811;28;19942;-86
2024/01/05 11:51:02;;;;;;;;;;;7.00;99.90;;;;;;5006205;28;19931;-84
2024/01/05 11:53:28;;;;;;;;;;;6.90;99.90;;;;;;5012529;28;19930;-85
2024/01/05 11:56:11;;;;;;;;;;;6.90;99.90;;;;;;5013714;28;19950;-91
2024/01/05 11:58:41;;;;;;;;;;;7.00;99.90;;;;;;5018490;28;19928;-88
2024/01/05 12:01:09;;;;;;;;;;;7.10;99.90;;;;;;5011062;28;19923;-86
2024/01/05 12:03:35;;;;;;;;;;;7.30;99.90;;;;;;5013648;28;19973;-83
2024/01/05 12:06:02;;;;;;;;;;;7.40;99.90;;;;;;5013626;28;19921;-85
2024/01/05 12:08:28;;;;;;;;;;;7.50;99.90;;;;;;5016459;28;19916;-84
2024/01/05 12:10:54;;;;;;;;;;;7.70;99.90;;;;;;5021582;28;19909;-87
2024/01/05 12:13:22;;;;;;;;;;;7.70;99.90;;;;;;5019769;28;19938;-89
2024/01/05 12:15:51;;;;;;;;;;;7.70;99.90;;;;;;5021808;28;20090;-86
2024/01/05 12:18:18;;;;;;;;;;;7.50;99.90;;;;;;5017341;28;20419;-88
2024/01/05 12:20:43;;;;;;;;;;;7.40;99.90;;;;;;5018117;28;19917;-86
2024/01/05 12:23:10;;;;;;;;;;;7.50;99.90;;;;;;5017927;28;20510;-87
2024/01/05 12:25:35;;;;;;;;;;;7.60;99.90;;;;;;5013852;28;19941;-86
2024/01/05 12:28:01;;;;;;;;;;;7.50;99.90;;;;;;5017282;28;19958;-87
2024/01/05 12:30:27;;;;;;;;;;;7.60;99.90;;;;;;5029041;28;19934;-87
2024/01/05 12:32:53;;;;;;;;;;;7.60;99.90;;;;;;5010207;28;19956;-87
2024/01/05 12:35:18;;;;;;;;;;;7.60;99.90;;;;;;5035802;28;19963;-88
2024/01/05 12:38:00;;;;;;;;;;;7.60;99.90;;;;;;5023791;28;19957;-88
2024/01/05 12:40:26;;;;;;;;;;;7.80;99.90;;;;;;5028735;28;20011;-89
2024/01/05 12:42:52;;;;;;;;;;;8.00;99.90;;;;;;5034578;28;20392;-89
2024/01/05 12:45:18;;;;;;;;;;;8.10;99.90;;;;;;5051231;28;19934;-86
2024/01/05 12:47:44;;;;;;;;;;;8.00;99.90;;;;;;5049596;28;19928;-90
2024/01/05 12:50:21;;;;;;;;;;;8.10;99.90;;;;;;5047719;28;19935;-84
2024/01/05 12:52:49;;;;;;;;;;;8.50;99.90;;;;;;5047742;28;19985;-87
2024/01/05 12:55:31;;;;;;;;;;;8.70;99.90;;;;;;5043584;28;20022;-88
2024/01/05 12:58:04;;;;;;;;;;;8.90;99.90;;;;;;5045199;28;19927;-89
2024/01/05 13:00:30;;;;;;;;;;;9.20;99.90;;;;;;5041197;28;20021;-91
2024/01/05 13:02:56;;;;;;;;;;;9.30;99.90;;;;;;5040783;28;19961;-91
2024/01/05 13:05:23;;;;;;;;;;;9.20;99.90;;;;;;5039702;28;19935;-89
2024/01/05 13:07:49;;;;;;;;;;;9.50;99.90;;;;;;5035055;28;19936;-90
2024/01/05 13:10:27;;;;;;;;;;;9.60;99.90;;;;;;5035342;28;21430;-90
2024/01/05 13:12:52;;;;;;;;;;;10.00;99.90;;;;;;5011384;28;19950;-91
2024/01/05 13:15:18;;;;;;;;;;;10.10;99.90;;;;;;5030134;28;19971;-87
2024/01/05 13:17:46;;;;;;;;;;;10.50;99.90;;;;;;5025768;28;19971;-86
2024/01/05 13:20:13;;;;;;;;;;;10.50;99.90;;;;;;5025358;28;20012;-87
2024/01/05 13:22:38;;;;;;;;;;;10.80;99.90;;;;;;5031689;28;19934;-86
2024/01/05 13:25:04;;;;;;;;;;;11.30;99.90;;;;;;5030972;28;19921;-86
2024/01/05 13:27:30;;;;;;;;;;;11.50;99.90;;;;;;5026778;28;19933;-86
2024/01/05 13:29:56;;;;;;;;;;;11.30;99.90;;;;;;5031288;28;20641;-85
2024/01/05 13:32:21;;;;;;;;;;;11.00;99.90;;;;;;5024063;28;20375;-87
2024/01/05 13:34:47;;;;;;;;;;;10.80;99.90;;;;;;5027990;28;20017;-87
2024/01/05 13:37:13;;;;;;;;;;;10.70;99.90;;;;;;5018453;28;20156;-86
2024/01/05 13:39:40;;;;;;;;;;;11.20;99.90;;;;;;5016555;28;20003;-87
2024/01/05 13:42:05;;;;;;;;;;;11.30;99.90;;;;;;5017849;28;19927;-87
2024/01/05 13:44:31;;;;;;;;;;;11.00;99.90;;;;;;5021990;28;19988;-86
2024/01/05 13:46:56;;;;;;;;;;;10.90;99.90;;;;;;5019716;28;20410;-86
2024/01/05 13:49:22;;;;;;;;;;;10.30;99.90;;;;;;5024082;28;20775;-86
2024/01/05 13:51:47;;;;;;;;;;;10.00;99.90;;;;;;5022844;28;19948;-86
2024/01/05 13:54:13;;;;;;;;;;;9.80;99.90;;;;;;5022312;28;19938;-86
2024/01/05 13:56:38;;;;;;;;;;;9.90;99.90;;;;;;5023772;28;19930;-86
2024/01/05 13:59:04;;;;;;;;;;;10.30;99.90;;;;;;5023262;28;19931;-86
2024/01/05 14:01:30;;;;;;;;;;;10.70;99.90;;;;;;5024544;28;19993;-86
2024/01/05 14:03:57;;;;;;;;;;;11.30;99.90;;;;;;5022230;28;19943;-87
2024/01/05 14:06:23;;;;;;;;;;;11.40;99.90;;;;;;5023603;28;19931;-87
2024/01/05 14:08:49;;;;;;;;;;;11.10;99.90;;;;;;5024556;28;19973;-87
2024/01/05 14:11:16;;;;;;;;;;;11.50;99.90;;;;;;5023609;28;20022;-87
2024/01/05 14:13:41;;;;;;;;;;;11.70;99.90;;;;;;5023582;28;20287;-86
2024/01/05 14:16:07;;;;;;;;;;;11.40;99.90;;;;;;5025929;28;20050;-87
2024/01/05 14:18:33;;;;;;;;;;;11.30;99.90;;;;;;5024631;28;19997;-85
2024/01/05 14:20:59;;;;;;;;;;;10.80;99.90;;;;;;5018070;28;19928;-86
2024/01/05 14:23:25;;;;;;;;;;;10.10;99.90;;;;;;5023788;28;21015;-87
2024/01/05 14:25:50;;;;;;;;;;;9.50;99.90;;;;;;5027410;28;20277;-86